Hudsonville, Indiana
Current Conditions -  °F | °C
As of 12:55 PM on Tuesday 27 Jan 2015 (Local Time) from KDCY Reporting Station
Overcast Overcast  
Wind Chill: -3°   Ceiling: 1100
Heat Index:   Visibility: 10mi
Dew Point: -3°   Wind: 6mph
Humidity: 83%   Direction: 360°N
Pressure: 30.12"   Gusts: NA
Location:  38.6251°N, 87.0452°W
Report Text: KDCY 271855Z AUTO 36005KT 10SM OVC011 00/M03 A3012 RMK AO2 T10011026
Loading
Personal Weather Stations






























Interactive Weather Map New forecast layout! Learn more

10-Day Weather Forecast

Advertisements
Track Severe Weather on mobile